BIEG

Egilsstaðir Airport

Egilsstaðir, Iceland

BIEG 231100Z 32003KT 9999 SCT007 BKN009 09/06 Q1018

Observed Flight Rules
Aug-23 @ 11:00 UTC (47 minutes ago)
 
Instrument Flight Rules
Wind Visibility Clouds
320° at 3 knots 10,000+ meters
  • Scattered at 700' AGL
  • Broken at 900' AGL
Temperatures Readings
Current 9°C / 48°F
Dewpoint 6°C / 43°F
Humidity 82%
Altimeter 30.06" Hg
Pressure 1018 hPa
Elevation 38
Observed Flight Rules
Aug-23 @ 11:00 UTC
(47 minutes ago)
 
IFR
Wind Visibility
320° at 3 knots 10,000+ meters
Clouds
  • Scattered at 700' AGL
  • Broken at 900' AGL
Temperature Dewpoint
9°C / 48°F 6°C / 43°F
Humidity Altimeter Pressure
82% 30.06" Hg 1018 hPa